sensor_id;sensor_type;location;lat;lon;timestamp;P1;durP1;ratioP1;P2;durP2;ratioP2
36355;SDS011;22384;54.302;18.596;2022-07-21T00:01:19;7.47;;;3.63;;
36355;SDS011;22384;54.302;18.596;2022-07-21T00:03:48;6.53;;;4.45;;
36355;SDS011;22384;54.302;18.596;2022-07-21T00:06:14;6.43;;;3.70;;
36355;SDS011;22384;54.302;18.596;2022-07-21T00:08:40;7.40;;;4.05;;
36355;SDS011;22384;54.302;18.596;2022-07-21T00:11:06;7.63;;;4.38;;
36355;SDS011;22384;54.302;18.596;2022-07-21T00:13:32;7.85;;;3.92;;
36355;SDS011;22384;54.302;18.596;2022-07-21T00:16:00;5.65;;;3.92;;
36355;SDS011;22384;54.302;18.596;2022-07-21T00:18:26;5.75;;;4.10;;
36355;SDS011;22384;54.302;18.596;2022-07-21T00:20:56;7.97;;;4.30;;
36355;SDS011;22384;54.302;18.596;2022-07-21T00:23:23;7.43;;;4.93;;
36355;SDS011;22384;54.302;18.596;2022-07-21T00:25:49;7.70;;;4.18;;
36355;SDS011;22384;54.302;18.596;2022-07-21T00:28:15;7.70;;;4.53;;
36355;SDS011;22384;54.302;18.596;2022-07-21T00:30:42;7.32;;;3.92;;
36355;SDS011;22384;54.302;18.596;2022-07-21T00:33:08;7.63;;;4.15;;
36355;SDS011;22384;54.302;18.596;2022-07-21T00:35:34;6.47;;;4.20;;
36355;SDS011;22384;54.302;18.596;2022-07-21T00:38:00;5.32;;;4.00;;
36355;SDS011;22384;54.302;18.596;2022-07-21T00:40:27;10.10;;;4.28;;
36355;SDS011;22384;54.302;18.596;2022-07-21T00:42:53;6.53;;;3.88;;
36355;SDS011;22384;54.302;18.596;2022-07-21T00:45:20;6.28;;;4.32;;
36355;SDS011;22384;54.302;18.596;2022-07-21T00:47:46;5.47;;;4.22;;
36355;SDS011;22384;54.302;18.596;2022-07-21T00:50:15;5.82;;;3.80;;
36355;SDS011;22384;54.302;18.596;2022-07-21T00:52:43;7.07;;;4.35;;
36355;SDS011;22384;54.302;18.596;2022-07-21T00:55:13;7.93;;;4.43;;
36355;SDS011;22384;54.302;18.596;2022-07-21T00:57:40;7.53;;;4.50;;
36355;SDS011;22384;54.302;18.596;2022-07-21T01:00:11;6.63;;;4.07;;
36355;SDS011;22384;54.302;18.596;2022-07-21T01:02:38;5.82;;;4.13;;
36355;SDS011;22384;54.302;18.596;2022-07-21T01:05:05;6.85;;;4.15;;
36355;SDS011;22384;54.302;18.596;2022-07-21T01:07:32;5.88;;;3.97;;
36355;SDS011;22384;54.302;18.596;2022-07-21T01:09:58;6.63;;;4.00;;
36355;SDS011;22384;54.302;18.596;2022-07-21T01:12:26;8.82;;;4.57;;
36355;SDS011;22384;54.302;18.596;2022-07-21T01:14:53;6.00;;;4.15;;
36355;SDS011;22384;54.302;18.596;2022-07-21T01:17:19;6.85;;;4.35;;
36355;SDS011;22384;54.302;18.596;2022-07-21T01:19:45;8.55;;;4.20;;
36355;SDS011;22384;54.302;18.596;2022-07-21T01:22:12;10.73;;;4.90;;
36355;SDS011;22384;54.302;18.596;2022-07-21T01:24:38;7.38;;;4.50;;
36355;SDS011;22384;54.302;18.596;2022-07-21T01:27:04;5.57;;;4.00;;
36355;SDS011;22384;54.302;18.596;2022-07-21T01:29:31;5.10;;;3.75;;
36355;SDS011;22384;54.302;18.596;2022-07-21T01:31:58;12.55;;;4.30;;
36355;SDS011;22384;54.302;18.596;2022-07-21T01:34:24;6.78;;;4.03;;
36355;SDS011;22384;54.302;18.596;2022-07-21T01:36:50;7.75;;;4.63;;
36355;SDS011;22384;54.302;18.596;2022-07-21T01:39:16;5.63;;;4.30;;
36355;SDS011;22384;54.302;18.596;2022-07-21T01:42:02;7.35;;;4.20;;
36355;SDS011;22384;54.302;18.596;2022-07-21T01:44:29;6.18;;;4.10;;
36355;SDS011;22384;54.302;18.596;2022-07-21T01:46:55;7.13;;;5.10;;
36355;SDS011;22384;54.302;18.596;2022-07-21T01:49:22;8.82;;;4.88;;
36355;SDS011;22384;54.302;18.596;2022-07-21T01:51:48;8.93;;;4.22;;
36355;SDS011;22384;54.302;18.596;2022-07-21T01:54:16;13.15;;;4.70;;
36355;SDS011;22384;54.302;18.596;2022-07-21T01:56:42;6.05;;;4.10;;
36355;SDS011;22384;54.302;18.596;2022-07-21T01:59:08;7.05;;;4.32;;
36355;SDS011;22384;54.302;18.596;2022-07-21T02:01:35;6.85;;;4.15;;
36355;SDS011;22384;54.302;18.596;2022-07-21T02:04:03;6.65;;;4.15;;
36355;SDS011;22384;54.302;18.596;2022-07-21T02:06:30;5.10;;;4.10;;
36355;SDS011;22384;54.302;18.596;2022-07-21T02:08:56;6.47;;;4.63;;
36355;SDS011;22384;54.302;18.596;2022-07-21T02:11:23;7.13;;;4.85;;
36355;SDS011;22384;54.302;18.596;2022-07-21T02:13:49;7.63;;;4.55;;
36355;SDS011;22384;54.302;18.596;2022-07-21T02:16:15;6.93;;;4.80;;
36355;SDS011;22384;54.302;18.596;2022-07-21T02:18:43;7.30;;;4.90;;
36355;SDS011;22384;54.302;18.596;2022-07-21T02:21:09;8.63;;;4.75;;
36355;SDS011;22384;54.302;18.596;2022-07-21T02:23:35;7.88;;;4.88;;
36355;SDS011;22384;54.302;18.596;2022-07-21T02:26:02;7.47;;;5.10;;
36355;SDS011;22384;54.302;18.596;2022-07-21T02:28:28;7.55;;;4.85;;
36355;SDS011;22384;54.302;18.596;2022-07-21T02:30:55;7.75;;;4.65;;
36355;SDS011;22384;54.302;18.596;2022-07-21T02:33:22;5.85;;;4.07;;
36355;SDS011;22384;54.302;18.596;2022-07-21T02:35:48;11.57;;;4.85;;
36355;SDS011;22384;54.302;18.596;2022-07-21T02:38:14;9.15;;;4.78;;
36355;SDS011;22384;54.302;18.596;2022-07-21T02:40:41;6.78;;;4.55;;
36355;SDS011;22384;54.302;18.596;2022-07-21T02:43:07;7.57;;;4.70;;
36355;SDS011;22384;54.302;18.596;2022-07-21T02:45:34;7.57;;;4.85;;
36355;SDS011;22384;54.302;18.596;2022-07-21T02:48:05;7.38;;;4.88;;
36355;SDS011;22384;54.302;18.596;2022-07-21T02:53:06;9.63;;;5.32;;
36355;SDS011;22384;54.302;18.596;2022-07-21T02:55:32;8.60;;;4.90;;
36355;SDS011;22384;54.302;18.596;2022-07-21T02:58:06;11.80;;;5.00;;
36355;SDS011;22384;54.302;18.596;2022-07-21T03:00:33;7.95;;;4.70;;
36355;SDS011;22384;54.302;18.596;2022-07-21T03:03:00;11.00;;;5.43;;
36355;SDS011;22384;54.302;18.596;2022-07-21T03:05:26;8.60;;;4.97;;
36355;SDS011;22384;54.302;18.596;2022-07-21T03:07:52;9.13;;;5.28;;
36355;SDS011;22384;54.302;18.596;2022-07-21T03:10:19;10.45;;;4.97;;
36355;SDS011;22384;54.302;18.596;2022-07-21T03:12:45;6.68;;;4.85;;
36355;SDS011;22384;54.302;18.596;2022-07-21T03:15:11;8.48;;;5.18;;
36355;SDS011;22384;54.302;18.596;2022-07-21T03:17:37;9.52;;;5.35;;
36355;SDS011;22384;54.302;18.596;2022-07-21T03:20:04;8.50;;;4.53;;
36355;SDS011;22384;54.302;18.596;2022-07-21T03:22:30;9.15;;;5.47;;
36355;SDS011;22384;54.302;18.596;2022-07-21T03:24:56;9.57;;;4.88;;
36355;SDS011;22384;54.302;18.596;2022-07-21T03:27:22;7.70;;;5.30;;
36355;SDS011;22384;54.302;18.596;2022-07-21T03:29:49;14.20;;;5.20;;
36355;SDS011;22384;54.302;18.596;2022-07-21T03:32:15;12.10;;;5.03;;
36355;SDS011;22384;54.302;18.596;2022-07-21T03:34:41;8.77;;;5.28;;
36355;SDS011;22384;54.302;18.596;2022-07-21T03:37:10;10.32;;;5.95;;
36355;SDS011;22384;54.302;18.596;2022-07-21T03:39:36;7.68;;;5.57;;
36355;SDS011;22384;54.302;18.596;2022-07-21T03:42:02;11.40;;;6.05;;
36355;SDS011;22384;54.302;18.596;2022-07-21T03:44:28;10.52;;;5.40;;
36355;SDS011;22384;54.302;18.596;2022-07-21T03:46:55;10.98;;;6.20;;
36355;SDS011;22384;54.302;18.596;2022-07-21T03:49:23;10.88;;;5.78;;
36355;SDS011;22384;54.302;18.596;2022-07-21T03:51:50;13.38;;;6.70;;
36355;SDS011;22384;54.302;18.596;2022-07-21T03:54:16;15.68;;;6.90;;
36355;SDS011;22384;54.302;18.596;2022-07-21T03:56:42;14.75;;;7.93;;
36355;SDS011;22384;54.302;18.596;2022-07-21T03:59:08;15.75;;;7.95;;
36355;SDS011;22384;54.302;18.596;2022-07-21T04:01:35;13.50;;;7.45;;
36355;SDS011;22384;54.302;18.596;2022-07-21T04:04:01;16.98;;;7.40;;
36355;SDS011;22384;54.302;18.596;2022-07-21T04:06:27;12.93;;;6.90;;
36355;SDS011;22384;54.302;18.596;2022-07-21T04:08:53;14.88;;;7.03;;
36355;SDS011;22384;54.302;18.596;2022-07-21T04:11:20;10.98;;;6.18;;
36355;SDS011;22384;54.302;18.596;2022-07-21T04:13:46;13.40;;;6.40;;
36355;SDS011;22384;54.302;18.596;2022-07-21T04:16:12;12.70;;;6.90;;
36355;SDS011;22384;54.302;18.596;2022-07-21T04:18:38;15.02;;;6.25;;
36355;SDS011;22384;54.302;18.596;2022-07-21T04:21:04;11.35;;;6.53;;
36355;SDS011;22384;54.302;18.596;2022-07-21T04:23:31;20.50;;;9.70;;
36355;SDS011;22384;54.302;18.596;2022-07-21T04:25:57;25.50;;;9.82;;
36355;SDS011;22384;54.302;18.596;2022-07-21T04:28:23;33.67;;;12.18;;
36355;SDS011;22384;54.302;18.596;2022-07-21T04:30:49;28.98;;;10.85;;
36355;SDS011;22384;54.302;18.596;2022-07-21T04:33:16;25.33;;;9.90;;
36355;SDS011;22384;54.302;18.596;2022-07-21T04:35:42;16.40;;;8.73;;
36355;SDS011;22384;54.302;18.596;2022-07-21T04:38:08;14.05;;;7.57;;
36355;SDS011;22384;54.302;18.596;2022-07-21T04:40:35;11.90;;;8.05;;
36355;SDS011;22384;54.302;18.596;2022-07-21T04:43:02;12.02;;;7.35;;
36355;SDS011;22384;54.302;18.596;2022-07-21T04:45:28;16.08;;;7.22;;
36355;SDS011;22384;54.302;18.596;2022-07-21T04:47:54;9.20;;;6.50;;
36355;SDS011;22384;54.302;18.596;2022-07-21T04:50:22;12.82;;;6.43;;
36355;SDS011;22384;54.302;18.596;2022-07-21T04:52:49;11.35;;;5.88;;
36355;SDS011;22384;54.302;18.596;2022-07-21T04:55:16;9.40;;;6.20;;
36355;SDS011;22384;54.302;18.596;2022-07-21T04:57:43;11.48;;;6.45;;
36355;SDS011;22384;54.302;18.596;2022-07-21T05:00:10;7.07;;;5.40;;
36355;SDS011;22384;54.302;18.596;2022-07-21T05:02:37;11.10;;;5.90;;
36355;SDS011;22384;54.302;18.596;2022-07-21T05:05:04;9.38;;;5.57;;
36355;SDS011;22384;54.302;18.596;2022-07-21T05:07:30;10.43;;;5.15;;
36355;SDS011;22384;54.302;18.596;2022-07-21T05:09:57;9.50;;;5.30;;
36355;SDS011;22384;54.302;18.596;2022-07-21T05:12:25;10.65;;;5.25;;
36355;SDS011;22384;54.302;18.596;2022-07-21T05:14:52;10.02;;;6.32;;
36355;SDS011;22384;54.302;18.596;2022-07-21T05:17:18;9.40;;;5.10;;
36355;SDS011;22384;54.302;18.596;2022-07-21T05:19:44;12.48;;;4.75;;
36355;SDS011;22384;54.302;18.596;2022-07-21T05:22:15;14.40;;;5.32;;
36355;SDS011;22384;54.302;18.596;2022-07-21T05:24:42;7.70;;;4.80;;
36355;SDS011;22384;54.302;18.596;2022-07-21T05:27:08;9.48;;;5.20;;
36355;SDS011;22384;54.302;18.596;2022-07-21T05:29:34;9.13;;;4.90;;
36355;SDS011;22384;54.302;18.596;2022-07-21T05:32:01;6.63;;;4.55;;
36355;SDS011;22384;54.302;18.596;2022-07-21T05:34:27;11.38;;;5.32;;
36355;SDS011;22384;54.302;18.596;2022-07-21T05:36:54;13.07;;;4.63;;
36355;SDS011;22384;54.302;18.596;2022-07-21T05:39:20;8.07;;;4.38;;
36355;SDS011;22384;54.302;18.596;2022-07-21T05:41:46;8.13;;;4.47;;
36355;SDS011;22384;54.302;18.596;2022-07-21T05:44:12;7.70;;;5.00;;
36355;SDS011;22384;54.302;18.596;2022-07-21T05:46:39;11.77;;;5.22;;
36355;SDS011;22384;54.302;18.596;2022-07-21T05:49:05;7.22;;;4.50;;
36355;SDS011;22384;54.302;18.596;2022-07-21T05:51:31;6.72;;;4.18;;
36355;SDS011;22384;54.302;18.596;2022-07-21T05:53:57;9.05;;;4.35;;
36355;SDS011;22384;54.302;18.596;2022-07-21T05:56:24;6.55;;;4.07;;
36355;SDS011;22384;54.302;18.596;2022-07-21T05:58:50;6.22;;;4.70;;
36355;SDS011;22384;54.302;18.596;2022-07-21T06:01:17;6.70;;;4.53;;
36355;SDS011;22384;54.302;18.596;2022-07-21T06:03:47;6.50;;;4.20;;
36355;SDS011;22384;54.302;18.596;2022-07-21T06:06:14;4.68;;;4.05;;
36355;SDS011;22384;54.302;18.596;2022-07-21T06:11:10;13.05;;;3.97;;
36355;SDS011;22384;54.302;18.596;2022-07-21T06:13:37;5.97;;;3.80;;
36355;SDS011;22384;54.302;18.596;2022-07-21T06:16:04;8.13;;;3.67;;
36355;SDS011;22384;54.302;18.596;2022-07-21T06:18:31;10.77;;;4.13;;
36355;SDS011;22384;54.302;18.596;2022-07-21T06:20:57;4.90;;;3.70;;
36355;SDS011;22384;54.302;18.596;2022-07-21T06:23:23;5.07;;;3.40;;
36355;SDS011;22384;54.302;18.596;2022-07-21T06:25:50;7.57;;;3.83;;
36355;SDS011;22384;54.302;18.596;2022-07-21T06:28:17;10.95;;;3.90;;
36355;SDS011;22384;54.302;18.596;2022-07-21T06:30:43;7.45;;;3.80;;
36355;SDS011;22384;54.302;18.596;2022-07-21T06:33:10;6.88;;;3.58;;
36355;SDS011;22384;54.302;18.596;2022-07-21T06:35:36;11.18;;;3.85;;
36355;SDS011;22384;54.302;18.596;2022-07-21T06:38:03;11.25;;;3.88;;
36355;SDS011;22384;54.302;18.596;2022-07-21T06:40:30;12.65;;;4.60;;
36355;SDS011;22384;54.302;18.596;2022-07-21T06:42:56;7.78;;;4.10;;
36355;SDS011;22384;54.302;18.596;2022-07-21T06:45:23;9.10;;;3.83;;
36355;SDS011;22384;54.302;18.596;2022-07-21T06:47:49;9.55;;;3.75;;
36355;SDS011;22384;54.302;18.596;2022-07-21T06:50:15;10.85;;;3.78;;
36355;SDS011;22384;54.302;18.596;2022-07-21T06:52:41;7.60;;;3.92;;
36355;SDS011;22384;54.302;18.596;2022-07-21T06:55:08;4.63;;;3.53;;
36355;SDS011;22384;54.302;18.596;2022-07-21T06:57:35;5.97;;;3.47;;
36355;SDS011;22384;54.302;18.596;2022-07-21T07:00:04;5.93;;;3.20;;
36355;SDS011;22384;54.302;18.596;2022-07-21T07:02:31;6.28;;;3.65;;
36355;SDS011;22384;54.302;18.596;2022-07-21T07:04:57;4.75;;;3.72;;
36355;SDS011;22384;54.302;18.596;2022-07-21T07:07:23;7.75;;;4.00;;
36355;SDS011;22384;54.302;18.596;2022-07-21T07:09:51;8.05;;;3.47;;
36355;SDS011;22384;54.302;18.596;2022-07-21T07:12:17;7.13;;;3.90;;
36355;SDS011;22384;54.302;18.596;2022-07-21T07:14:43;7.80;;;3.92;;
36355;SDS011;22384;54.302;18.596;2022-07-21T07:17:17;10.57;;;3.13;;
36355;SDS011;22384;54.302;18.596;2022-07-21T07:19:46;8.60;;;4.45;;
36355;SDS011;22384;54.302;18.596;2022-07-21T07:22:13;7.90;;;4.00;;
36355;SDS011;22384;54.302;18.596;2022-07-21T07:24:39;9.35;;;3.83;;
36355;SDS011;22384;54.302;18.596;2022-07-21T07:27:05;6.28;;;3.88;;
36355;SDS011;22384;54.302;18.596;2022-07-21T07:29:32;8.60;;;4.20;;
36355;SDS011;22384;54.302;18.596;2022-07-21T07:31:58;8.02;;;3.95;;
36355;SDS011;22384;54.302;18.596;2022-07-21T07:34:24;5.35;;;3.67;;
36355;SDS011;22384;54.302;18.596;2022-07-21T07:36:51;8.50;;;3.95;;
36355;SDS011;22384;54.302;18.596;2022-07-21T07:39:17;6.85;;;3.75;;
36355;SDS011;22384;54.302;18.596;2022-07-21T07:41:43;7.47;;;3.83;;
36355;SDS011;22384;54.302;18.596;2022-07-21T07:44:09;6.82;;;3.72;;
36355;SDS011;22384;54.302;18.596;2022-07-21T07:46:37;8.88;;;4.15;;
36355;SDS011;22384;54.302;18.596;2022-07-21T07:49:03;6.28;;;3.70;;
36355;SDS011;22384;54.302;18.596;2022-07-21T07:51:29;6.40;;;3.80;;
36355;SDS011;22384;54.302;18.596;2022-07-21T07:53:55;9.32;;;3.65;;
36355;SDS011;22384;54.302;18.596;2022-07-21T07:56:22;8.43;;;3.50;;
36355;SDS011;22384;54.302;18.596;2022-07-21T07:58:48;5.60;;;3.08;;
36355;SDS011;22384;54.302;18.596;2022-07-21T08:01:14;6.30;;;3.17;;
36355;SDS011;22384;54.302;18.596;2022-07-21T08:03:41;6.35;;;3.45;;
36355;SDS011;22384;54.302;18.596;2022-07-21T08:06:08;5.03;;;3.45;;
36355;SDS011;22384;54.302;18.596;2022-07-21T08:08:34;6.20;;;3.75;;
36355;SDS011;22384;54.302;18.596;2022-07-21T08:11:01;5.00;;;3.67;;
36355;SDS011;22384;54.302;18.596;2022-07-21T08:13:28;7.35;;;3.60;;
36355;SDS011;22384;54.302;18.596;2022-07-21T08:15:55;5.93;;;3.45;;
36355;SDS011;22384;54.302;18.596;2022-07-21T08:18:21;6.38;;;3.50;;
36355;SDS011;22384;54.302;18.596;2022-07-21T08:20:48;6.40;;;3.63;;
36355;SDS011;22384;54.302;18.596;2022-07-21T08:23:14;9.55;;;4.43;;
36355;SDS011;22384;54.302;18.596;2022-07-21T08:25:41;5.93;;;3.83;;
36355;SDS011;22384;54.302;18.596;2022-07-21T08:28:08;4.72;;;2.97;;
36355;SDS011;22384;54.302;18.596;2022-07-21T08:30:35;6.60;;;3.50;;
36355;SDS011;22384;54.302;18.596;2022-07-21T08:33:01;8.20;;;3.30;;
36355;SDS011;22384;54.302;18.596;2022-07-21T08:35:28;8.77;;;3.75;;
36355;SDS011;22384;54.302;18.596;2022-07-21T08:37:55;3.90;;;3.42;;
36355;SDS011;22384;54.302;18.596;2022-07-21T08:40:24;4.20;;;3.08;;
36355;SDS011;22384;54.302;18.596;2022-07-21T08:42:51;6.40;;;3.45;;
36355;SDS011;22384;54.302;18.596;2022-07-21T08:45:18;12.70;;;4.13;;
36355;SDS011;22384;54.302;18.596;2022-07-21T08:47:44;8.05;;;3.85;;
36355;SDS011;22384;54.302;18.596;2022-07-21T08:50:10;8.32;;;4.40;;
36355;SDS011;22384;54.302;18.596;2022-07-21T08:52:36;5.63;;;3.60;;
36355;SDS011;22384;54.302;18.596;2022-07-21T08:55:03;6.68;;;3.63;;
36355;SDS011;22384;54.302;18.596;2022-07-21T08:57:29;7.40;;;4.60;;
36355;SDS011;22384;54.302;18.596;2022-07-21T08:59:55;10.70;;;3.90;;
36355;SDS011;22384;54.302;18.596;2022-07-21T09:04:54;7.53;;;3.78;;
36355;SDS011;22384;54.302;18.596;2022-07-21T09:07:20;13.02;;;3.80;;
36355;SDS011;22384;54.302;18.596;2022-07-21T09:09:57;6.57;;;3.45;;
36355;SDS011;22384;54.302;18.596;2022-07-21T09:12:27;6.35;;;3.15;;
36355;SDS011;22384;54.302;18.596;2022-07-21T09:15:15;6.60;;;3.38;;
36355;SDS011;22384;54.302;18.596;2022-07-21T09:17:44;6.40;;;3.67;;
36355;SDS011;22384;54.302;18.596;2022-07-21T09:20:22;7.28;;;3.50;;
36355;SDS011;22384;54.302;18.596;2022-07-21T09:23:02;7.13;;;3.28;;
36355;SDS011;22384;54.302;18.596;2022-07-21T09:28:07;7.00;;;3.20;;
36355;SDS011;22384;54.302;18.596;2022-07-21T09:30:46;6.63;;;3.17;;
36355;SDS011;22384;54.302;18.596;2022-07-21T09:36:10;7.35;;;2.88;;
36355;SDS011;22384;54.302;18.596;2022-07-21T09:38:41;4.63;;;3.30;;
36355;SDS011;22384;54.302;18.596;2022-07-21T09:41:17;10.20;;;3.30;;
36355;SDS011;22384;54.302;18.596;2022-07-21T09:43:45;5.13;;;2.88;;
36355;SDS011;22384;54.302;18.596;2022-07-21T09:46:13;8.45;;;3.47;;
36355;SDS011;22384;54.302;18.596;2022-07-21T09:48:41;5.68;;;3.03;;
36355;SDS011;22384;54.302;18.596;2022-07-21T09:51:21;6.25;;;3.30;;
36355;SDS011;22384;54.302;18.596;2022-07-21T09:53:48;7.57;;;3.20;;
36355;SDS011;22384;54.302;18.596;2022-07-21T09:56:16;12.35;;;3.33;;
36355;SDS011;22384;54.302;18.596;2022-07-21T09:58:44;5.72;;;3.38;;
36355;SDS011;22384;54.302;18.596;2022-07-21T10:01:11;3.97;;;3.03;;
36355;SDS011;22384;54.302;18.596;2022-07-21T10:03:37;4.00;;;2.80;;
36355;SDS011;22384;54.302;18.596;2022-07-21T10:06:04;3.92;;;3.10;;
36355;SDS011;22384;54.302;18.596;2022-07-21T10:08:32;6.28;;;2.78;;
36355;SDS011;22384;54.302;18.596;2022-07-21T10:10:59;4.63;;;3.20;;
36355;SDS011;22384;54.302;18.596;2022-07-21T10:13:25;7.50;;;3.03;;
36355;SDS011;22384;54.302;18.596;2022-07-21T10:15:52;10.85;;;2.70;;
36355;SDS011;22384;54.302;18.596;2022-07-21T10:18:18;5.55;;;2.83;;
36355;SDS011;22384;54.302;18.596;2022-07-21T10:21:02;6.22;;;2.60;;
36355;SDS011;22384;54.302;18.596;2022-07-21T10:23:34;5.78;;;3.25;;
36355;SDS011;22384;54.302;18.596;2022-07-21T10:26:01;5.38;;;2.78;;
36355;SDS011;22384;54.302;18.596;2022-07-21T10:28:30;3.40;;;2.83;;
36355;SDS011;22384;54.302;18.596;2022-07-21T10:30:57;6.20;;;3.10;;
36355;SDS011;22384;54.302;18.596;2022-07-21T10:36:09;7.60;;;2.90;;
36355;SDS011;22384;54.302;18.596;2022-07-21T10:38:37;6.38;;;3.20;;
36355;SDS011;22384;54.302;18.596;2022-07-21T10:41:04;8.70;;;3.03;;
36355;SDS011;22384;54.302;18.596;2022-07-21T10:45:58;8.23;;;2.97;;
36355;SDS011;22384;54.302;18.596;2022-07-21T10:51:11;6.70;;;2.72;;
36355;SDS011;22384;54.302;18.596;2022-07-21T10:53:38;3.58;;;2.67;;
36355;SDS011;22384;54.302;18.596;2022-07-21T10:56:05;7.05;;;3.00;;
36355;SDS011;22384;54.302;18.596;2022-07-21T10:58:38;5.72;;;3.20;;
36355;SDS011;22384;54.302;18.596;2022-07-21T11:01:19;8.65;;;2.60;;
36355;SDS011;22384;54.302;18.596;2022-07-21T11:03:45;5.22;;;2.67;;
36355;SDS011;22384;54.302;18.596;2022-07-21T11:06:14;4.57;;;2.70;;
36355;SDS011;22384;54.302;18.596;2022-07-21T11:08:44;6.70;;;2.88;;
36355;SDS011;22384;54.302;18.596;2022-07-21T11:11:13;6.55;;;2.55;;
36355;SDS011;22384;54.302;18.596;2022-07-21T11:21:53;7.38;;;3.10;;
36355;SDS011;22384;54.302;18.596;2022-07-21T11:24:20;4.85;;;2.72;;
36355;SDS011;22384;54.302;18.596;2022-07-21T11:26:53;5.03;;;2.83;;
36355;SDS011;22384;54.302;18.596;2022-07-21T11:29:19;4.07;;;2.65;;
36355;SDS011;22384;54.302;18.596;2022-07-21T11:31:46;3.63;;;2.88;;
36355;SDS011;22384;54.302;18.596;2022-07-21T11:34:12;7.30;;;3.13;;
36355;SDS011;22384;54.302;18.596;2022-07-21T11:36:39;7.38;;;2.90;;
36355;SDS011;22384;54.302;18.596;2022-07-21T11:39:06;5.65;;;3.00;;
36355;SDS011;22384;54.302;18.596;2022-07-21T11:41:33;7.78;;;2.90;;
36355;SDS011;22384;54.302;18.596;2022-07-21T11:44:00;3.97;;;2.53;;
36355;SDS011;22384;54.302;18.596;2022-07-21T11:46:27;6.55;;;2.97;;
36355;SDS011;22384;54.302;18.596;2022-07-21T11:49:05;4.05;;;2.50;;
36355;SDS011;22384;54.302;18.596;2022-07-21T11:51:31;6.60;;;2.65;;
36355;SDS011;22384;54.302;18.596;2022-07-21T11:53:58;8.07;;;2.95;;
36355;SDS011;22384;54.302;18.596;2022-07-21T11:56:24;9.27;;;3.38;;
36355;SDS011;22384;54.302;18.596;2022-07-21T11:58:51;11.20;;;2.47;;
36355;SDS011;22384;54.302;18.596;2022-07-21T12:01:34;5.88;;;2.53;;
36355;SDS011;22384;54.302;18.596;2022-07-21T12:04:13;8.50;;;2.80;;
36355;SDS011;22384;54.302;18.596;2022-07-21T12:06:39;5.57;;;2.95;;
36355;SDS011;22384;54.302;18.596;2022-07-21T12:09:06;20.52;;;3.42;;
36355;SDS011;22384;54.302;18.596;2022-07-21T12:11:35;9.63;;;2.80;;
36355;SDS011;22384;54.302;18.596;2022-07-21T12:14:02;2.88;;;2.10;;
36355;SDS011;22384;54.302;18.596;2022-07-21T12:16:28;4.50;;;2.70;;
36355;SDS011;22384;54.302;18.596;2022-07-21T12:19:10;5.70;;;2.72;;
36355;SDS011;22384;54.302;18.596;2022-07-21T12:21:49;5.65;;;2.70;;
36355;SDS011;22384;54.302;18.596;2022-07-21T12:24:17;9.30;;;2.63;;
36355;SDS011;22384;54.302;18.596;2022-07-21T12:26:43;8.43;;;2.58;;
36355;SDS011;22384;54.302;18.596;2022-07-21T12:29:09;11.32;;;2.78;;
36355;SDS011;22384;54.302;18.596;2022-07-21T12:31:36;5.95;;;2.80;;
36355;SDS011;22384;54.302;18.596;2022-07-21T12:34:13;9.73;;;2.60;;
36355;SDS011;22384;54.302;18.596;2022-07-21T12:36:42;5.13;;;2.80;;
36355;SDS011;22384;54.302;18.596;2022-07-21T12:39:22;6.03;;;2.70;;
36355;SDS011;22384;54.302;18.596;2022-07-21T12:42:09;4.65;;;2.70;;
36355;SDS011;22384;54.302;18.596;2022-07-21T12:44:35;11.07;;;2.78;;
36355;SDS011;22384;54.302;18.596;2022-07-21T12:47:17;4.45;;;2.42;;
36355;SDS011;22384;54.302;18.596;2022-07-21T12:50:17;8.52;;;2.50;;
36355;SDS011;22384;54.302;18.596;2022-07-21T12:52:36;4.05;;;2.20;;
36355;SDS011;22384;54.302;18.596;2022-07-21T12:55:02;7.35;;;2.60;;
36355;SDS011;22384;54.302;18.596;2022-07-21T12:57:29;8.05;;;2.50;;
36355;SDS011;22384;54.302;18.596;2022-07-21T12:59:57;5.07;;;2.80;;
36355;SDS011;22384;54.302;18.596;2022-07-21T13:02:24;8.85;;;3.05;;
36355;SDS011;22384;54.302;18.596;2022-07-21T13:04:51;8.10;;;2.50;;
36355;SDS011;22384;54.302;18.596;2022-07-21T13:07:17;7.07;;;2.90;;
36355;SDS011;22384;54.302;18.596;2022-07-21T13:09:43;4.85;;;2.25;;
36355;SDS011;22384;54.302;18.596;2022-07-21T13:12:13;9.43;;;2.95;;
36355;SDS011;22384;54.302;18.596;2022-07-21T13:14:40;6.78;;;2.33;;
36355;SDS011;22384;54.302;18.596;2022-07-21T13:17:06;7.43;;;2.80;;
36355;SDS011;22384;54.302;18.596;2022-07-21T13:19:33;12.05;;;2.65;;
36355;SDS011;22384;54.302;18.596;2022-07-21T13:22:02;6.82;;;3.63;;
36355;SDS011;22384;54.302;18.596;2022-07-21T13:24:28;7.20;;;2.63;;
36355;SDS011;22384;54.302;18.596;2022-07-21T13:26:54;9.20;;;3.00;;
36355;SDS011;22384;54.302;18.596;2022-07-21T13:29:21;10.32;;;2.90;;
36355;SDS011;22384;54.302;18.596;2022-07-21T13:31:47;3.47;;;2.63;;
36355;SDS011;22384;54.302;18.596;2022-07-21T13:34:13;8.02;;;2.78;;
36355;SDS011;22384;54.302;18.596;2022-07-21T13:36:39;9.73;;;2.95;;
36355;SDS011;22384;54.302;18.596;2022-07-21T13:39:06;5.57;;;2.35;;
36355;SDS011;22384;54.302;18.596;2022-07-21T13:41:32;4.43;;;2.42;;
36355;SDS011;22384;54.302;18.596;2022-07-21T13:43:59;6.10;;;3.00;;
36355;SDS011;22384;54.302;18.596;2022-07-21T13:46:26;4.68;;;2.50;;
36355;SDS011;22384;54.302;18.596;2022-07-21T13:48:52;6.07;;;3.00;;
36355;SDS011;22384;54.302;18.596;2022-07-21T13:51:19;9.80;;;2.97;;
36355;SDS011;22384;54.302;18.596;2022-07-21T13:53:47;7.85;;;2.97;;
36355;SDS011;22384;54.302;18.596;2022-07-21T13:56:14;9.30;;;2.90;;
36355;SDS011;22384;54.302;18.596;2022-07-21T13:58:40;2.97;;;2.60;;
36355;SDS011;22384;54.302;18.596;2022-07-21T14:01:08;8.98;;;3.08;;
36355;SDS011;22384;54.302;18.596;2022-07-21T14:03:35;6.85;;;3.00;;
36355;SDS011;22384;54.302;18.596;2022-07-21T14:06:02;5.80;;;2.72;;
36355;SDS011;22384;54.302;18.596;2022-07-21T14:08:28;6.28;;;2.90;;
36355;SDS011;22384;54.302;18.596;2022-07-21T14:10:54;4.20;;;2.47;;
36355;SDS011;22384;54.302;18.596;2022-07-21T14:13:21;7.82;;;2.47;;
36355;SDS011;22384;54.302;18.596;2022-07-21T14:15:47;7.18;;;2.80;;
36355;SDS011;22384;54.302;18.596;2022-07-21T14:18:14;6.28;;;2.65;;
36355;SDS011;22384;54.302;18.596;2022-07-21T14:20:40;9.77;;;2.80;;
36355;SDS011;22384;54.302;18.596;2022-07-21T14:23:06;4.55;;;3.13;;
36355;SDS011;22384;54.302;18.596;2022-07-21T14:25:33;6.07;;;2.50;;
36355;SDS011;22384;54.302;18.596;2022-07-21T14:27:59;5.00;;;2.72;;
36355;SDS011;22384;54.302;18.596;2022-07-21T14:30:26;6.85;;;2.45;;
36355;SDS011;22384;54.302;18.596;2022-07-21T14:32:55;4.35;;;2.63;;
36355;SDS011;22384;54.302;18.596;2022-07-21T14:35:21;6.60;;;2.78;;
36355;SDS011;22384;54.302;18.596;2022-07-21T14:37:47;7.28;;;2.72;;
36355;SDS011;22384;54.302;18.596;2022-07-21T14:40:15;7.35;;;2.60;;
36355;SDS011;22384;54.302;18.596;2022-07-21T14:42:42;3.45;;;2.70;;
36355;SDS011;22384;54.302;18.596;2022-07-21T14:45:10;12.43;;;3.33;;
36355;SDS011;22384;54.302;18.596;2022-07-21T14:47:38;6.05;;;2.72;;
36355;SDS011;22384;54.302;18.596;2022-07-21T14:50:06;9.68;;;2.70;;
36355;SDS011;22384;54.302;18.596;2022-07-21T14:52:32;10.68;;;2.65;;
36355;SDS011;22384;54.302;18.596;2022-07-21T14:54:59;9.05;;;4.05;;
36355;SDS011;22384;54.302;18.596;2022-07-21T14:57:25;7.43;;;3.15;;
36355;SDS011;22384;54.302;18.596;2022-07-21T14:59:52;8.25;;;2.90;;
36355;SDS011;22384;54.302;18.596;2022-07-21T15:02:19;4.68;;;2.60;;